Time;durP1;ratioP1;P1;durP2;ratioP2;P2;SDS_P1;SDS_P2;PMS_P1;PMS_P2;Temp;Humidity;BMP_temperature;BMP_pressure;BME280_temperature;BME280_humidity;BME280_pressure;Samples;Min_cycle;Max_cycle;Signal;HPM_P1;HPM_P2
2022/08/01 00:00:08;;;;;;;0.98;0.98;;;22.60;66.00;;;;;;6124968;23;44175;-63
2022/08/01 00:02:37;;;;;;;1.35;1.00;;;22.60;66.00;;;;;;6151246;23;43475;-63
2022/08/01 00:05:07;;;;;;;1.10;1.10;;;22.60;66.00;;;;;;6150762;23;44729;-63
2022/08/01 00:07:35;;;;;;;0.85;0.85;;;22.60;66.00;;;;;;6150846;23;43934;-64
2022/08/01 00:10:10;;;;;;;1.13;1.02;;;22.60;66.00;;;;;;6152176;23;43463;-64
2022/08/01 00:12:38;;;;;;;0.88;0.88;;;22.60;66.00;;;;;;6151510;23;43430;-63
2022/08/01 00:15:09;;;;;;;1.08;0.98;;;22.60;66.10;;;;;;6150352;23;44099;-63
2022/08/01 00:17:37;;;;;;;1.00;1.00;;;22.60;66.00;;;;;;6151537;23;43654;-63
2022/08/01 00:20:09;;;;;;;1.00;1.00;;;22.60;66.00;;;;;;6125278;23;43437;-63
2022/08/01 00:22:37;;;;;;;1.00;1.00;;;22.60;66.00;;;;;;6150704;23;43519;-63
2022/08/01 00:25:05;;;;;;;1.38;0.80;;;22.60;66.00;;;;;;6150967;23;44683;-63
2022/08/01 00:27:33;;;;;;;0.90;0.80;;;22.60;66.00;;;;;;6151119;23;43961;-63
2022/08/01 00:30:05;;;;;;;0.93;0.93;;;22.60;66.10;;;;;;6153257;23;43550;-63
2022/08/01 00:32:42;;;;;;;1.05;0.88;;;22.60;66.10;;;;;;6152814;23;43506;-63
2022/08/01 00:35:09;;;;;;;1.10;0.98;;;22.60;66.10;;;;;;6124885;23;44934;-63
2022/08/01 00:37:37;;;;;;;0.90;0.90;;;22.60;66.10;;;;;;6152569;23;43644;-63
2022/08/01 00:40:06;;;;;;;1.05;1.00;;;22.60;66.10;;;;;;6152911;23;43389;-63
2022/08/01 00:42:33;;;;;;;1.00;1.00;;;22.60;66.10;;;;;;6152151;23;43422;-63
2022/08/01 00:45:08;;;;;;;0.82;0.82;;;22.60;66.10;;;;;;6152516;23;44953;-63
2022/08/01 00:47:35;;;;;;;1.00;1.00;;;22.60;66.10;;;;;;6152355;23;43711;-63
2022/08/01 00:50:04;;;;;;;0.80;0.80;;;22.60;66.10;;;;;;6152116;23;43438;-63
2022/08/01 00:52:34;;;;;;;0.77;0.77;;;22.60;66.10;;;;;;6153215;23;43629;-63
2022/08/01 00:55:01;;;;;;;0.85;0.85;;;22.60;66.20;;;;;;6152678;23;44686;-64
2022/08/01 00:57:29;;;;;;;1.23;1.13;;;22.60;66.10;;;;;;6151781;23;43989;-63
2022/08/01 01:00:17;;;;;;;1.17;1.08;;;22.60;66.10;;;;;;6152668;23;43437;-64
2022/08/01 01:02:53;;;;;;;1.40;0.90;;;22.50;66.10;;;;;;6152281;23;43337;-63
2022/08/01 01:05:21;;;;;;;0.75;0.75;;;22.50;66.10;;;;;;6152242;23;44064;-63
2022/08/01 01:07:58;;;;;;;0.95;0.80;;;22.50;66.10;;;;;;6152331;23;43398;-64
2022/08/01 01:10:34;;;;;;;1.58;1.00;;;22.50;66.00;;;;;;6152155;23;43373;-63
2022/08/01 01:13:25;;;;;;;0.88;0.88;;;22.50;66.10;;;;;;6153337;23;43364;-63
2022/08/01 01:16:04;;;;;;;1.05;1.00;;;22.50;66.10;;;;;;6125813;23;44029;-63
2022/08/01 01:18:39;;;;;;;1.02;0.93;;;22.50;66.10;;;;;;6151952;23;44316;-63
2022/08/01 01:21:16;;;;;;;1.20;1.10;;;22.50;66.10;;;;;;6153038;23;43386;-63
2022/08/01 01:24:17;;;;;;;1.00;1.00;;;22.50;66.10;;;;;;6152079;23;43404;-63
2022/08/01 01:27:03;;;;;;;1.00;1.00;;;22.50;66.00;;;;;;6152206;23;44751;-63
2022/08/01 01:29:48;;;;;;;1.10;0.90;;;22.50;66.10;;;;;;6152731;23;43668;-64
2022/08/01 01:32:41;;;;;;;0.98;0.98;;;22.50;66.10;;;;;;6151919;23;43360;-63
2022/08/01 01:35:18;;;;;;;1.05;1.00;;;22.50;66.20;;;;;;6152437;23;43600;-63
2022/08/01 01:37:48;;;;;;;0.80;0.80;;;22.50;66.10;;;;;;6151883;23;44695;-63
2022/08/01 01:40:17;;;;;;;0.90;0.90;;;22.50;66.10;;;;;;6152319;23;43997;-63
2022/08/01 01:42:46;;;;;;;0.98;0.98;;;22.50;66.10;;;;;;6152736;23;43357;-63
2022/08/01 01:45:14;;;;;;;0.98;0.80;;;22.50;66.20;;;;;;6151305;23;43410;-63
2022/08/01 01:47:43;;;;;;;1.13;0.88;;;22.50;66.10;;;;;;6152061;23;45356;-63
2022/08/01 01:50:12;;;;;;;1.20;1.10;;;22.50;66.10;;;;;;6151736;23;43677;-63
2022/08/01 01:52:42;;;;;;;0.80;0.75;;;22.50;66.10;;;;;;6152083;23;43390;-63
2022/08/01 01:55:11;;;;;;;1.15;0.90;;;22.50;66.10;;;;;;6152427;23;43444;-64
2022/08/01 01:57:41;;;;;;;1.42;0.95;;;22.50;66.10;;;;;;6152069;23;43744;-63
2022/08/01 02:00:13;;;;;;;0.90;0.90;;;22.50;66.10;;;;;;6151071;23;43446;-63
2022/08/01 02:02:42;;;;;;;1.20;1.00;;;22.50;66.10;;;;;;6152567;23;43359;-63
2022/08/01 02:05:11;;;;;;;1.85;1.10;;;22.50;66.10;;;;;;6152744;23;43947;-63
2022/08/01 02:07:40;;;;;;;1.52;0.88;;;22.50;66.10;;;;;;6150965;23;44680;-63
2022/08/01 02:10:10;;;;;;;1.00;0.90;;;22.50;66.10;;;;;;6152130;23;43481;-63
2022/08/01 02:12:42;;;;;;;1.10;1.00;;;22.50;66.10;;;;;;6152575;23;43363;-63
2022/08/01 02:15:11;;;;;;;1.80;1.10;;;22.50;66.10;;;;;;6151487;23;43425;-63
2022/08/01 02:17:44;;;;;;;1.00;0.95;;;22.50;66.10;;;;;;6151969;23;44660;-63
2022/08/01 02:20:13;;;;;;;1.38;1.17;;;22.50;66.10;;;;;;6151576;23;44271;-64
2022/08/01 02:23:04;;;;;;;0.90;0.90;;;22.40;66.00;;;;;;6152653;23;43387;-63
2022/08/01 02:25:59;;;;;;;1.48;1.20;;;22.40;66.00;;;;;;6152402;23;43420;-63
2022/08/01 02:28:52;;;;;;;2.22;1.20;;;22.50;66.10;;;;;;6151571;23;44683;-63
2022/08/01 02:31:22;;;;;;;1.10;1.00;;;22.40;66.10;;;;;;6152421;23;43691;-63
2022/08/01 02:34:18;;;;;;;0.90;0.90;;;22.40;66.10;;;;;;6151872;23;43340;-63
2022/08/01 02:36:48;;;;;;;1.42;0.80;;;22.40;66.00;;;;;;6149713;23;43436;-63
2022/08/01 02:39:19;;;;;;;1.03;0.90;;;22.40;66.00;;;;;;6152368;23;44683;-63
2022/08/01 02:41:48;;;;;;;;;;;22.40;66.10;;;;;;6152303;23;43686;-64
2022/08/01 02:44:29;;;;;;;1.10;1.08;;;22.40;66.00;;;;;;6152310;23;43429;-63
2022/08/01 02:47:03;;;;;;;0.80;0.80;;;22.40;66.10;;;;;;6152527;23;43374;-63
2022/08/01 02:49:38;;;;;;;1.92;0.95;;;22.40;66.00;;;;;;6151014;23;44655;-63
2022/08/01 02:52:09;;;;;;;0.90;0.90;;;22.40;66.00;;;;;;6152569;23;43682;-63
2022/08/01 02:54:40;;;;;;;1.42;1.10;;;22.40;66.00;;;;;;6152643;23;43396;-63
2022/08/01 02:57:09;;;;;;;1.10;1.02;;;22.40;66.00;;;;;;6152185;23;43413;-63
2022/08/01 02:59:42;;;;;;;1.02;0.95;;;22.40;66.00;;;;;;6152583;23;43777;-63
2022/08/01 03:02:12;;;;;;;1.15;1.05;;;22.40;66.00;;;;;;6152205;23;43923;-63
2022/08/01 03:04:41;;;;;;;1.48;1.10;;;22.40;66.00;;;;;;6152348;23;43439;-65
2022/08/01 03:07:10;;;;;;;1.35;0.95;;;22.40;66.00;;;;;;6152450;23;43462;-63
2022/08/01 03:09:41;;;;;;;1.40;1.20;;;22.40;65.90;;;;;;6151490;23;44717;-63
2022/08/01 03:12:17;;;;;;;1.83;1.10;;;22.40;65.90;;;;;;6152443;23;43951;-63
2022/08/01 03:14:47;;;;;;;1.48;0.93;;;22.40;66.00;;;;;;6152290;23;43340;-63
2022/08/01 03:17:18;;;;;;;1.20;1.10;;;22.40;66.00;;;;;;6151842;23;43427;-63
2022/08/01 03:19:48;;;;;;;2.13;1.08;;;22.40;66.00;;;;;;6151750;23;45223;-64
2022/08/01 03:22:21;;;;;;;2.15;1.10;;;22.30;65.90;;;;;;6152126;23;43885;-63
2022/08/01 03:24:53;;;;;;;1.98;1.00;;;22.40;66.00;;;;;;6151463;23;43377;-63
2022/08/01 03:27:22;;;;;;;1.38;0.88;;;22.30;65.90;;;;;;6152116;23;43488;-63
2022/08/01 03:29:51;;;;;;;1.77;1.30;;;22.30;65.90;;;;;;6151150;23;44717;-63
2022/08/01 03:32:20;;;;;;;0.90;0.90;;;22.30;65.90;;;;;;6151030;23;43650;-63
2022/08/01 03:34:48;;;;;;;1.48;1.10;;;22.30;65.90;;;;;;6151850;23;43375;-63
2022/08/01 03:37:25;;;;;;;1.45;0.88;;;22.30;65.90;;;;;;6151513;23;43558;-63
2022/08/01 03:40:08;;;;;;;1.02;1.02;;;22.30;65.80;;;;;;6152262;23;44085;-63
2022/08/01 03:42:44;;;;;;;1.00;0.90;;;22.30;65.90;;;;;;6151774;23;43421;-63
2022/08/01 03:45:22;;;;;;;1.10;1.00;;;22.30;65.90;;;;;;6151002;23;43413;-63
2022/08/01 03:47:55;;;;;;;0.80;0.80;;;22.30;65.80;;;;;;6151927;23;43525;-62
2022/08/01 03:50:24;;;;;;;1.23;0.90;;;22.30;65.90;;;;;;6151867;23;43755;-63
2022/08/01 03:52:57;;;;;;;1.17;1.08;;;22.30;65.90;;;;;;6150707;23;43643;-63
2022/08/01 03:55:25;;;;;;;1.60;1.10;;;22.30;65.90;;;;;;6151175;23;43468;-63
2022/08/01 03:57:53;;;;;;;1.30;1.20;;;22.30;65.80;;;;;;6151199;23;43437;-63
2022/08/01 04:00:21;;;;;;;1.92;1.13;;;22.30;65.80;;;;;;6150852;23;43783;-63
2022/08/01 04:02:50;;;;;;;1.73;1.10;;;22.30;65.80;;;;;;6152405;23;43407;-63
2022/08/01 04:05:18;;;;;;;1.38;1.23;;;22.30;65.80;;;;;;6153012;23;43361;-63
2022/08/01 04:07:47;;;;;;;0.88;0.88;;;22.30;65.80;;;;;;6151888;23;43433;-63
2022/08/01 04:10:16;;;;;;;1.40;0.90;;;22.30;65.80;;;;;;6152522;23;43755;-63
2022/08/01 04:12:44;;;;;;;1.13;1.02;;;22.20;65.80;;;;;;6151905;23;43662;-63
2022/08/01 04:15:11;;;;;;;0.80;0.80;;;22.30;65.80;;;;;;6153108;23;43390;-63
2022/08/01 04:17:39;;;;;;;1.48;1.30;;;22.30;65.80;;;;;;6152870;23;43446;-63
2022/08/01 04:20:07;;;;;;;1.10;1.00;;;22.20;65.70;;;;;;6151650;23;43710;-63
2022/08/01 04:22:35;;;;;;;0.90;0.90;;;22.20;65.70;;;;;;6126624;23;43998;-63
2022/08/01 04:25:15;;;;;;;1.10;1.00;;;22.20;65.70;;;;;;6152444;23;43449;-63
2022/08/01 04:27:48;;;;;;;1.80;1.10;;;22.20;66.40;;;;;;6152096;23;43390;-62
2022/08/01 04:30:24;;;;;;;2.20;1.17;;;22.20;65.70;;;;;;6152702;23;43768;-62
2022/08/01 04:32:54;;;;;;;1.95;1.33;;;22.30;65.80;;;;;;6152256;23;43488;-63
2022/08/01 04:35:24;;;;;;;1.48;1.30;;;22.30;65.80;;;;;;6152168;23;43362;-62
2022/08/01 04:38:17;;;;;;;1.30;1.20;;;22.30;65.80;;;;;;6152603;23;43494;-62
2022/08/01 04:40:45;;;;;;;1.10;1.00;;;22.30;65.80;;;;;;6151717;23;44796;-62
2022/08/01 04:43:13;;;;;;;1.10;0.98;;;22.20;65.70;;;;;;6152711;23;44000;-62
2022/08/01 04:45:43;;;;;;;1.20;1.10;;;22.20;65.70;;;;;;6152607;23;43387;-62
2022/08/01 04:48:13;;;;;;;1.60;1.13;;;22.20;65.70;;;;;;6151748;23;43426;-62
2022/08/01 04:50:41;;;;;;;1.15;1.00;;;22.30;65.80;;;;;;6151962;23;44934;-63
2022/08/01 04:53:17;;;;;;;1.65;1.55;;;22.20;65.70;;;;;;6152851;23;43382;-62
2022/08/01 04:55:48;;;;;;;1.70;1.10;;;22.20;66.30;;;;;;6152111;23;43387;-62
2022/08/01 04:58:16;;;;;;;1.60;1.00;;;22.20;65.70;;;;;;6152902;23;43437;-62
2022/08/01 05:00:46;;;;;;;1.58;1.08;;;22.20;65.70;;;;;;6152105;23;44768;-62
2022/08/01 05:03:14;;;;;;;1.88;1.27;;;22.20;65.70;;;;;;6152207;23;43338;-62
2022/08/01 05:05:41;;;;;;;1.30;1.02;;;22.20;65.70;;;;;;6152787;23;43365;-63
2022/08/01 05:08:09;;;;;;;1.90;1.10;;;22.20;65.70;;;;;;6152609;23;43485;-62
2022/08/01 05:10:37;;;;;;;1.42;1.15;;;22.20;65.70;;;;;;6151295;23;44088;-63
2022/08/01 05:13:06;;;;;;;1.88;1.10;;;22.20;65.70;;;;;;6152190;23;43729;-62
2022/08/01 05:15:36;;;;;;;2.35;1.10;;;22.20;65.70;;;;;;6152614;23;43408;-64
2022/08/01 05:18:04;;;;;;;1.97;1.27;;;22.20;65.70;;;;;;6152240;23;43531;-63
2022/08/01 05:20:34;;;;;;;2.00;1.35;;;22.20;65.70;;;;;;6152024;23;45001;-62
2022/08/01 05:23:01;;;;;;;1.65;1.17;;;22.20;65.80;;;;;;6152107;23;43692;-62
2022/08/01 05:25:29;;;;;;;2.80;1.25;;;22.20;65.70;;;;;;6152622;23;43354;-63
2022/08/01 05:28:17;;;;;;;1.45;1.30;;;22.20;65.70;;;;;;6152400;23;43432;-63
2022/08/01 05:30:45;;;;;;;3.47;1.33;;;22.20;66.40;;;;;;6151203;23;44951;-62
2022/08/01 05:33:13;;;;;;;1.75;1.20;;;22.20;65.80;;;;;;6152841;23;43750;-63
2022/08/01 05:35:40;;;;;;;1.35;1.10;;;22.20;65.70;;;;;;6152429;23;43354;-64
2022/08/01 05:38:15;;;;;;;3.13;1.30;;;22.20;65.80;;;;;;6152127;23;43481;-63
2022/08/01 05:40:43;;;;;;;1.75;1.20;;;22.20;65.70;;;;;;6152129;23;43779;-62
2022/08/01 05:43:10;;;;;;;1.38;1.10;;;22.20;65.70;;;;;;6152320;23;43424;-63
2022/08/01 05:45:38;;;;;;;3.45;1.50;;;22.20;65.70;;;;;;6151645;23;43337;-63
2022/08/01 05:48:05;;;;;;;1.95;1.13;;;22.20;65.70;;;;;;6152270;23;43487;-63
2022/08/01 05:50:33;;;;;;;1.60;1.30;;;22.20;65.80;;;;;;6151973;23;44734;-63
2022/08/01 05:53:01;;;;;;;2.50;1.63;;;22.20;65.70;;;;;;6151968;23;43397;-63
2022/08/01 05:55:29;;;;;;;3.60;1.20;;;22.20;65.70;;;;;;6152019;23;43417;-63
2022/08/01 05:57:56;;;;;;;2.75;1.35;;;22.20;65.80;;;;;;6151983;23;43570;-63
2022/08/01 06:00:24;;;;;;;1.80;1.27;;;22.20;65.80;;;;;;6152021;23;44648;-63
2022/08/01 06:02:51;;;;;;;1.80;1.40;;;22.10;65.80;;;;;;6152344;23;43433;-63
2022/08/01 06:05:18;;;;;;;2.13;1.50;;;22.20;65.90;;;;;;6151548;23;43466;-63
2022/08/01 06:07:46;;;;;;;2.25;1.52;;;22.20;65.80;;;;;;6175328;23;43455;-63
2022/08/01 06:10:14;;;;;;;2.88;1.40;;;22.10;65.80;;;;;;6151767;23;43788;-63
2022/08/01 06:12:42;;;;;;;1.77;1.17;;;22.10;65.80;;;;;;6151416;23;43703;-62
2022/08/01 06:15:10;;;;;;;1.30;1.13;;;22.10;65.80;;;;;;6152293;23;43411;-63
2022/08/01 06:17:38;;;;;;;2.95;1.33;;;22.10;65.70;;;;;;6152115;23;43415;-62
2022/08/01 06:20:07;;;;;;;1.58;1.27;;;22.10;65.70;;;;;;6151089;23;43998;-63
2022/08/01 06:22:35;;;;;;;1.65;1.52;;;22.10;65.70;;;;;;6148203;23;43519;-63
2022/08/01 06:25:03;;;;;;;2.15;1.40;;;22.10;65.70;;;;;;6150491;23;43915;-63
2022/08/01 06:27:30;;;;;;;2.33;1.20;;;22.10;65.70;;;;;;6149971;23;43475;-63
2022/08/01 06:29:59;;;;;;;1.95;1.17;;;22.10;65.70;;;;;;6151836;23;44697;-63
2022/08/01 06:32:26;;;;;;;2.20;1.50;;;22.10;65.70;;;;;;6151107;23;43449;-63
2022/08/01 06:34:54;;;;;;;2.22;1.20;;;22.10;65.70;;;;;;6150477;23;43393;-63
2022/08/01 06:37:22;;;;;;;2.40;1.40;;;22.20;65.70;;;;;;6151112;23;43472;-63
2022/08/01 06:39:50;;;;;;;2.25;1.30;;;22.10;65.60;;;;;;6151261;23;44685;-63
2022/08/01 06:42:18;;;;;;;2.00;1.30;;;22.10;65.70;;;;;;6151130;23;43774;-63
2022/08/01 06:44:45;;;;;;;2.60;1.30;;;22.10;65.80;;;;;;6151271;23;43413;-63
2022/08/01 06:47:13;;;;;;;2.00;1.10;;;22.10;65.90;;;;;;6150890;23;43416;-62
2022/08/01 06:49:40;;;;;;;3.03;1.30;;;22.10;65.90;;;;;;6150717;23;44658;-62
2022/08/01 06:52:08;;;;;;;1.92;1.30;;;22.10;65.80;;;;;;6151262;23;43659;-62
2022/08/01 06:54:36;;;;;;;2.40;1.45;;;22.10;65.80;;;;;;6150655;23;43441;-62
2022/08/01 06:57:06;;;;;;;2.15;1.30;;;22.10;65.70;;;;;;6151537;23;43472;-62
2022/08/01 06:59:34;;;;;;;1.30;1.20;;;22.20;65.70;;;;;;6151078;23;44898;-62
2022/08/01 07:02:01;;;;;;;1.20;1.10;;;22.10;65.70;;;;;;6150927;23;43396;-62
2022/08/01 07:04:29;;;;;;;1.92;1.58;;;22.10;65.70;;;;;;6151349;23;43489;-62
2022/08/01 07:06:57;;;;;;;2.58;1.40;;;22.10;65.70;;;;;;6151498;23;43391;-61
2022/08/01 07:09:25;;;;;;;3.30;1.38;;;22.20;65.80;;;;;;6150086;23;44036;-61
2022/08/01 07:11:53;;;;;;;2.85;1.30;;;22.20;65.90;;;;;;6151553;23;43417;-63
2022/08/01 07:14:21;;;;;;;2.90;1.30;;;22.10;65.90;;;;;;6151604;23;43373;-62
2022/08/01 07:16:49;;;;;;;2.05;1.30;;;22.10;65.80;;;;;;6150073;23;43528;-63
2022/08/01 07:19:18;;;;;;;1.90;1.17;;;22.20;65.80;;;;;;6151010;23;44673;-62
2022/08/01 07:21:45;;;;;;;3.00;1.60;;;22.20;65.80;;;;;;6150955;23;43352;-62
2022/08/01 07:24:16;;;;;;;3.55;1.30;;;22.10;65.70;;;;;;6150892;23;43407;-62
2022/08/01 07:26:48;;;;;;;2.05;1.13;;;22.10;65.70;;;;;;6151561;23;43564;-62
2022/08/01 07:29:24;;;;;;;1.67;1.02;;;22.20;65.80;;;;;;6150813;23;44643;-63
2022/08/01 07:31:53;;;;;;;1.73;1.45;;;22.20;65.70;;;;;;6150870;23;43459;-62
2022/08/01 07:34:21;;;;;;;2.00;1.30;;;22.20;65.70;;;;;;6151153;23;43354;-63
2022/08/01 07:36:49;;;;;;;2.63;1.60;;;22.20;65.80;;;;;;6149891;23;43395;-63
2022/08/01 07:39:16;;;;;;;3.00;1.42;;;22.20;65.70;;;;;;6147254;23;44809;-63
2022/08/01 07:41:44;;;;;;;1.52;1.30;;;22.20;65.70;;;;;;6148248;23;43363;-63
2022/08/01 07:44:31;;;;;;;2.13;1.30;;;22.20;65.80;;;;;;6150010;23;43358;-63
2022/08/01 07:46:59;;;;;;;1.63;1.10;;;22.20;65.80;;;;;;6151075;23;43590;-63
2022/08/01 07:49:27;;;;;;;2.15;1.27;;;22.20;65.90;;;;;;6149124;23;44090;-63
2022/08/01 07:51:54;;;;;;;2.15;1.27;;;22.20;65.90;;;;;;6149820;23;43651;-62
2022/08/01 07:54:39;;;;;;;1.90;1.30;;;22.20;66.00;;;;;;6150218;23;43362;-63
2022/08/01 07:57:07;;;;;;;2.45;1.20;;;22.20;66.00;;;;;;6151144;23;43587;-62
2022/08/01 07:59:34;;;;;;;1.67;1.25;;;22.20;65.90;;;;;;6149205;23;44676;-62
2022/08/01 08:02:02;;;;;;;2.28;1.23;;;22.20;65.90;;;;;;6149680;23;43397;-62
2022/08/01 08:04:30;;;;;;;2.33;1.10;;;22.20;66.10;;;;;;6151226;23;43377;-62
2022/08/01 08:06:57;;;;;;;1.27;1.00;;;22.20;66.10;;;;;;6150870;23;43606;-62
2022/08/01 08:09:26;;;;;;;3.22;1.27;;;22.20;66.20;;;;;;6150121;23;44645;-62
2022/08/01 08:11:53;;;;;;;2.65;1.50;;;22.20;66.10;;;;;;6150158;23;43958;-62
2022/08/01 08:14:22;;;;;;;2.28;1.40;;;22.20;66.30;;;;;;6151159;23;43426;-62
2022/08/01 08:16:59;;;;;;;1.70;1.30;;;22.20;66.20;;;;;;6151459;23;43478;-62
2022/08/01 08:19:28;;;;;;;2.30;1.48;;;22.20;66.30;;;;;;6149401;23;43718;-62
2022/08/01 08:22:06;;;;;;;3.67;1.48;;;22.20;66.20;;;;;;6124360;23;43346;-62
2022/08/01 08:24:36;;;;;;;2.17;1.23;;;22.30;66.20;;;;;;6150899;23;43510;-62
2022/08/01 08:27:12;;;;;;;2.55;1.48;;;22.20;66.20;;;;;;6150487;23;43501;-62
2022/08/01 08:29:39;;;;;;;2.75;1.40;;;22.20;66.20;;;;;;6149488;23;44624;-62
2022/08/01 08:32:07;;;;;;;2.03;1.17;;;22.20;66.30;;;;;;6150499;23;43361;-62
2022/08/01 08:34:35;;;;;;;2.97;1.52;;;22.20;66.30;;;;;;6150747;23;43378;-62
2022/08/01 08:37:03;;;;;;;2.60;1.30;;;22.20;66.20;;;;;;6150853;23;43591;-62
2022/08/01 08:39:31;;;;;;;2.75;1.20;;;22.20;66.20;;;;;;6149996;23;44932;-62
2022/08/01 08:42:09;;;;;;;1.27;0.90;;;22.20;66.30;;;;;;6149991;23;43927;-62
2022/08/01 08:44:39;;;;;;;2.90;1.48;;;22.20;66.20;;;;;;6150938;23;43411;-62
2022/08/01 08:47:12;;;;;;;2.00;1.05;;;22.20;66.30;;;;;;6147435;23;43401;-62
2022/08/01 08:49:46;;;;;;;1.83;1.20;;;22.30;66.20;;;;;;6152099;23;43828;-62
2022/08/01 08:52:17;;;;;;;2.17;1.38;;;22.30;66.30;;;;;;6151789;23;43377;-62
2022/08/01 08:54:46;;;;;;;2.05;1.40;;;22.20;66.20;;;;;;6150434;23;43528;-62
2022/08/01 08:57:15;;;;;;;1.58;1.10;;;22.20;66.30;;;;;;6152216;23;43504;-62
2022/08/01 08:59:46;;;;;;;1.98;1.10;;;22.20;66.20;;;;;;6151910;23;44021;-62
2022/08/01 09:02:14;;;;;;;1.38;1.02;;;22.20;66.30;;;;;;6150377;23;43469;-62
2022/08/01 09:04:41;;;;;;;2.22;1.15;;;22.30;66.30;;;;;;6151827;23;43353;-62
2022/08/01 09:07:10;;;;;;;2.08;1.13;;;22.30;66.40;;;;;;6151626;23;43571;-62
2022/08/01 09:09:38;;;;;;;1.30;0.85;;;22.20;66.20;;;;;;6151081;23;44933;-61
2022/08/01 09:12:08;;;;;;;1.55;1.10;;;22.20;66.20;;;;;;6151102;23;43893;-62
2022/08/01 09:14:45;;;;;;;2.28;1.30;;;22.30;66.20;;;;;;6151837;23;43985;-62
2022/08/01 09:17:13;;;;;;;2.40;1.25;;;22.30;66.20;;;;;;6151654;23;43401;-61
2022/08/01 09:19:44;;;;;;;1.77;1.05;;;22.30;66.30;;;;;;6151124;23;44634;-61
2022/08/01 09:22:17;;;;;;;1.70;1.10;;;22.30;66.20;;;;;;6149948;23;43674;-61
2022/08/01 09:25:09;;;;;;;2.80;1.25;;;22.30;66.20;;;;;;6151830;23;43424;-62
2022/08/01 09:27:40;;;;;;;;;;;22.30;66.20;;;;;;6152722;23;43561;-61
2022/08/01 09:30:18;;;;;;;3.42;1.17;;;22.30;66.30;;;;;;6149766;23;44008;-62
2022/08/01 09:32:57;;;;;;;1.95;1.20;;;22.30;66.30;;;;;;6150598;23;43958;-61
2022/08/01 09:35:32;;;;;;;2.47;1.23;;;22.30;66.30;;;;;;6152384;23;43413;-62
2022/08/01 09:38:19;;;;;;;2.22;1.42;;;22.30;66.30;;;;;;6151200;23;43342;-61
2022/08/01 09:40:57;;;;;;;4.05;1.23;;;22.30;66.20;;;;;;6140481;23;43782;-61
2022/08/01 09:43:27;;;;;;;2.97;1.13;;;22.30;66.20;;;;;;6149705;23;43452;-61
2022/08/01 09:45:58;;;;;;;3.13;1.45;;;22.30;66.20;;;;;;6151544;23;43455;-62
2022/08/01 09:48:27;;;;;;;2.58;1.23;;;22.30;66.20;;;;;;6151302;23;43499;-61
2022/08/01 09:50:58;;;;;;;1.48;1.15;;;22.40;66.20;;;;;;6149281;23;43816;-61
2022/08/01 09:53:44;;;;;;;3.33;1.13;;;22.40;66.20;;;;;;6150997;23;43907;-62
2022/08/01 09:56:19;;;;;;;1.98;1.10;;;22.40;66.00;;;;;;6150724;23;43435;-62
2022/08/01 09:58:58;;;;;;;2.20;1.10;;;22.40;66.00;;;;;;6147232;23;43472;-61
2022/08/01 10:01:49;;;;;;;2.40;1.10;;;22.40;66.00;;;;;;6150145;23;45064;-62
2022/08/01 10:04:21;;;;;;;1.55;1.02;;;22.40;66.00;;;;;;6150203;23;43407;-62
2022/08/01 10:06:53;;;;;;;1.45;0.93;;;22.40;65.90;;;;;;6151146;23;43405;-62
2022/08/01 10:09:30;;;;;;;4.05;1.40;;;22.40;65.90;;;;;;6150896;23;43416;-62
2022/08/01 10:12:08;;;;;;;3.40;1.38;;;22.40;65.90;;;;;;6149179;23;43953;-61
2022/08/01 10:14:44;;;;;;;2.45;1.10;;;22.40;65.90;;;;;;6150575;23;44011;-61
2022/08/01 10:17:16;;;;;;;1.10;1.00;;;22.40;65.80;;;;;;6151749;23;43356;-61
2022/08/01 10:19:49;;;;;;;1.17;0.98;;;22.50;65.80;;;;;;6124308;23;43822;-61
2022/08/01 10:22:19;;;;;;;1.77;0.90;;;22.50;65.90;;;;;;6148909;23;44070;-61
2022/08/01 10:24:49;;;;;;;1.40;1.00;;;22.50;65.80;;;;;;6150196;23;43362;-61
2022/08/01 10:27:18;;;;;;;1.20;1.10;;;22.50;66.40;;;;;;6150939;23;43393;-61
2022/08/01 10:30:03;;;;;;;2.38;1.00;;;22.50;65.70;;;;;;6150846;23;43499;-61
2022/08/01 10:32:51;;;;;;;1.60;1.00;;;22.50;65.60;;;;;;6148849;23;44258;-62
2022/08/01 10:35:21;;;;;;;2.60;1.10;;;22.50;65.70;;;;;;6150485;23;43699;-62
2022/08/01 10:38:10;;;;;;;1.80;1.27;;;22.50;65.70;;;;;;6151800;23;43919;-62
2022/08/01 10:40:42;;;;;;;2.35;1.15;;;22.50;66.30;;;;;;6150108;23;43520;-61
2022/08/01 10:43:15;;;;;;;1.90;1.23;;;22.50;65.60;;;;;;6149789;23;44041;-61
2022/08/01 10:45:50;;;;;;;2.10;1.10;;;22.50;65.60;;;;;;6150217;23;43783;-61
2022/08/01 10:48:24;;;;;;;1.00;0.93;;;22.50;65.60;;;;;;6173381;23;43428;-61
2022/08/01 10:51:00;;;;;;;1.27;1.00;;;22.50;65.60;;;;;;6150027;23;43497;-61
2022/08/01 10:53:28;;;;;;;2.28;1.20;;;22.60;65.70;;;;;;6150155;23;43710;-61
2022/08/01 10:56:01;;;;;;;2.00;1.10;;;22.60;65.60;;;;;;6151675;23;43639;-61
2022/08/01 10:58:32;;;;;;;1.15;1.00;;;22.50;65.50;;;;;;6151060;23;43472;-61
2022/08/01 11:01:29;;;;;;;1.58;1.20;;;22.60;65.60;;;;;;6149989;23;43330;-61
2022/08/01 11:04:14;;;;;;;1.45;0.70;;;22.60;65.50;;;;;;6151680;23;44913;-61
2022/08/01 11:07:04;;;;;;;1.58;0.88;;;22.60;65.50;;;;;;6150917;23;43357;-62
2022/08/01 11:09:42;;;;;;;2.13;0.93;;;22.60;65.50;;;;;;6150856;23;43354;-61
2022/08/01 11:12:18;;;;;;;1.75;1.10;;;22.60;65.50;;;;;;6150365;23;43469;-61
2022/08/01 11:15:00;;;;;;;1.60;1.00;;;22.60;65.50;;;;;;6150913;23;44034;-62
2022/08/01 11:17:38;;;;;;;1.23;1.08;;;22.60;65.50;;;;;;6151483;23;43366;-61
2022/08/01 11:20:12;;;;;;;0.68;0.68;;;22.60;65.50;;;;;;6151588;23;43422;-61
2022/08/01 11:23:03;;;;;;;1.58;1.10;;;22.60;65.60;;;;;;6149359;23;43408;-61
2022/08/01 11:25:36;;;;;;;1.27;0.98;;;22.60;65.50;;;;;;6151263;23;43785;-61
2022/08/01 11:28:29;;;;;;;1.25;1.05;;;22.60;65.50;;;;;;6151556;23;44010;-61
2022/08/01 11:31:07;;;;;;;1.02;0.90;;;22.70;65.60;;;;;;6150711;23;43420;-61
2022/08/01 11:33:44;;;;;;;1.48;0.90;;;22.70;65.60;;;;;;6151172;23;43563;-61
2022/08/01 11:36:13;;;;;;;1.67;1.00;;;22.70;65.60;;;;;;6150396;23;45106;-62
2022/08/01 11:38:45;;;;;;;1.20;0.80;;;22.70;65.60;;;;;;6151065;23;43973;-61
2022/08/01 11:41:24;;;;;;;2.47;1.17;;;22.70;65.50;;;;;;6150681;23;43399;-61
2022/08/01 11:44:11;;;;;;;2.70;0.90;;;22.70;65.50;;;;;;6124132;23;43523;-61
2022/08/01 11:46:51;;;;;;;1.80;0.95;;;22.70;65.60;;;;;;6150570;23;44956;-61
2022/08/01 11:49:35;;;;;;;2.28;1.00;;;22.70;65.60;;;;;;6148642;23;43874;-61
2022/08/01 11:52:23;;;;;;;2.03;0.90;;;22.80;65.50;;;;;;6150220;23;43353;-61
2022/08/01 11:54:56;;;;;;;2.00;0.90;;;22.80;65.50;;;;;;6151050;23;43473;-61
2022/08/01 11:57:34;;;;;;;1.88;0.98;;;22.80;65.50;;;;;;6149901;23;44691;-61
2022/08/01 12:00:13;;;;;;;1.02;0.93;;;22.80;65.40;;;;;;6150420;23;43516;-62
2022/08/01 12:02:43;;;;;;;1.60;0.93;;;22.90;65.40;;;;;;6149734;23;43378;-61
2022/08/01 12:05:20;;;;;;;0.73;0.73;;;22.90;65.40;;;;;;6149848;23;43411;-61
2022/08/01 12:07:57;;;;;;;2.10;1.15;;;22.90;65.30;;;;;;6150254;23;43758;-61
2022/08/01 12:10:28;;;;;;;3.33;1.25;;;23.00;65.30;;;;;;6149803;23;43676;-62
2022/08/01 12:12:59;;;;;;;;;;;22.90;65.30;;;;;;6149333;23;43419;-62
2022/08/01 12:15:32;;;;;;;1.02;0.80;;;23.00;65.30;;;;;;6150712;23;43361;-61
2022/08/01 12:18:05;;;;;;;1.52;0.98;;;23.00;65.30;;;;;;6150225;23;43960;-61
2022/08/01 12:20:41;;;;;;;1.50;1.05;;;23.00;65.30;;;;;;6150229;23;43669;-62
2022/08/01 12:23:23;;;;;;;1.58;0.98;;;23.00;65.20;;;;;;6150701;23;43381;-62
2022/08/01 12:25:52;;;;;;;2.17;1.30;;;23.00;65.20;;;;;;6150908;23;43532;-62
2022/08/01 12:28:19;;;;;;;1.80;0.85;;;23.10;65.30;;;;;;6151615;23;45004;-62
2022/08/01 12:30:49;;;;;;;1.40;0.95;;;23.10;65.20;;;;;;6150802;23;43451;-62
2022/08/01 12:33:20;;;;;;;0.90;0.80;;;23.10;65.20;;;;;;6150215;23;43475;-61
2022/08/01 12:35:48;;;;;;;0.85;0.80;;;23.10;65.10;;;;;;6151261;23;43580;-61
2022/08/01 12:38:17;;;;;;;1.55;0.90;;;23.10;65.10;;;;;;6151467;23;43852;-61
2022/08/01 12:40:47;;;;;;;1.15;0.70;;;23.20;65.70;;;;;;6150066;23;43650;-61
2022/08/01 12:43:21;;;;;;;1.98;1.00;;;23.20;65.00;;;;;;6151531;23;43384;-62
2022/08/01 12:45:58;;;;;;;1.00;0.90;;;23.20;65.00;;;;;;6151659;23;43516;-61
2022/08/01 12:48:27;;;;;;;1.80;1.15;;;23.30;65.00;;;;;;6151180;23;45084;-62
2022/08/01 12:50:57;;;;;;;0.93;0.85;;;23.30;64.90;;;;;;6150350;23;43417;-62
2022/08/01 12:53:26;;;;;;;0.90;0.57;;;23.30;64.90;;;;;;6151030;23;43345;-62
2022/08/01 12:56:09;;;;;;;1.23;0.70;;;23.30;64.90;;;;;;6152153;23;43326;-62
2022/08/01 12:58:38;;;;;;;1.17;0.80;;;23.30;64.90;;;;;;6151567;23;45078;-62
2022/08/01 13:01:08;;;;;;;1.88;0.85;;;23.30;64.90;;;;;;6148795;23;43921;-62
2022/08/01 13:03:35;;;;;;;2.28;0.98;;;23.30;64.90;;;;;;6151320;23;43368;-62
2022/08/01 13:06:15;;;;;;;3.40;1.08;;;23.30;64.90;;;;;;6151487;23;43510;-60
2022/08/01 13:08:44;;;;;;;2.13;0.82;;;23.40;65.00;;;;;;6150665;23;44018;-63
2022/08/01 13:11:14;;;;;;;1.33;0.98;;;23.40;65.00;;;;;;6149142;23;43503;-62
2022/08/01 13:13:46;;;;;;;0.83;0.80;;;23.40;64.60;;;;;;6151917;23;43391;-62